Airfield :
LOGIN :

Register | Disclaimer

   EN    FR    IT 

 










Legend :    VFR   Marginal VFR   IFR   Intensive IFR   Very Intensive IFR
Visi :
Ceiling :
>= 8 km
>= 3000ft
5 to 8 km
1000 to 3000 ft
1500m to 5 km
500 to 1000 ft
800 to 1500m
200 to 500 ft
< 800m
< 200 ft
Symbols :   Thunderstorms  Fog  Heavy snow  Heavy precipitations  Wind > 20 kt
SIGMETs :     Misc.  Thunderstorms  Icing  Turbulence  Mountain Waves  Volcanic Ashes







- Airport Elevation : 2220 ft


LOXZ - Zeltweg AB

CURRENT METAR :
  • 231320Z 27003KT 30KM FEW035SC BKN060SC 05/M02 Q1024 NOSIG

EXPIRED METARs :
  • 231250Z 34002KT 30KM VCSH FEW035SC BKN050SC 04/01 Q1023 NOSIG
  • 231220Z 34002KT 30KM FEW035SC BKN050SC 04/01 Q1023 NOSIG
  • 231150Z 30004KT 30KM VCSH FEW035SC BKN050SC 03/00 Q1023 NOSIG
  • 231120Z 30002KT 30KM FEW035SC BKN050SC 03/M01 Q1023 NOSIG RMK
  • 231050Z VRB03KT 30KM FEW035SC BKN050SC 03/M01 Q1023 NOSIG RMK

TAF COR TAF LOXZ
Valid from the 23 at 12:00 until the 23 at 21:00 UTC


231115Z 2312/2321 VRB03KT 9999 FEW040 BKN050
TEMPO 2312/2314 -SHRA
No reported NOTAMs for that airfield.



MET'MAP, your aeronautical weather chart ! - Copyright ORBIFLY December 2007 - Disclaimer

ORBIFLY MET'MAP TEAM :

Programming & Development : Alexandra Zaïnal
Concept & Development : Baudouin d'Aumeries
Co-Development & Prog : Marc-Olivier Méhu
Technical & hardware support : Manuel Goepfert

Contact : metmap@orbifly.com




SOURCES & CREDITS :

   NOAA